createdAt,value
2022-07-30T00:00:37.649Z,5.13
2022-07-30T00:03:06.215Z,5.40
2022-07-30T00:05:34.659Z,4.95
2022-07-30T00:08:03.088Z,5.97
2022-07-30T00:10:31.559Z,5.90
2022-07-30T00:13:02.350Z,5.65
2022-07-30T00:15:34.025Z,5.88
2022-07-30T00:18:04.005Z,5.82
2022-07-30T00:23:07.401Z,5.72
2022-07-30T00:25:38.546Z,5.47
2022-07-30T00:28:07.102Z,5.50
2022-07-30T00:30:35.635Z,5.55
2022-07-30T00:33:05.819Z,6.03
2022-07-30T00:35:36.949Z,6.63
2022-07-30T00:38:05.497Z,6.05
2022-07-30T00:40:34.204Z,6.40
2022-07-30T00:43:02.661Z,6.90
2022-07-30T00:45:31.099Z,7.50
2022-07-30T00:48:01.463Z,6.35
2022-07-30T00:50:31.227Z,6.75
2022-07-30T00:53:00.499Z,6.75
2022-07-30T00:55:28.920Z,7.50
2022-07-30T00:57:57.292Z,7.40
2022-07-30T01:00:26.137Z,6.95
2022-07-30T01:02:54.766Z,7.32
2022-07-30T01:05:23.247Z,8.57
2022-07-30T01:07:52.919Z,6.30
2022-07-30T01:10:21.437Z,6.03
2022-07-30T01:12:52.687Z,5.70
2022-07-30T01:15:21.436Z,5.75
2022-07-30T01:17:53.150Z,6.80
2022-07-30T01:20:28.281Z,7.13
2022-07-30T01:23:08.385Z,6.78
2022-07-30T01:26:00.365Z,7.53
2022-07-30T01:28:34.393Z,7.32
2022-07-30T01:31:04.811Z,7.00
2022-07-30T01:33:36.616Z,8.05
2022-07-30T01:36:07.602Z,7.15
2022-07-30T01:38:37.843Z,7.40
2022-07-30T01:41:09.380Z,7.50
2022-07-30T01:43:38.915Z,7.85
2022-07-30T01:46:08.554Z,7.07
2022-07-30T01:48:44.908Z,7.70
2022-07-30T01:51:15.030Z,7.18
2022-07-30T01:53:49.366Z,7.22
2022-07-30T01:56:25.252Z,7.43
2022-07-30T01:58:57.139Z,7.97
2022-07-30T02:01:27.804Z,7.38
2022-07-30T02:04:05.641Z,7.50
2022-07-30T02:06:40.430Z,7.60
2022-07-30T02:09:12.664Z,7.90
2022-07-30T02:14:41.023Z,7.68
2022-07-30T02:17:18.997Z,7.75
2022-07-30T02:19:54.556Z,7.30
2022-07-30T02:22:26.701Z,7.35
2022-07-30T02:24:56.998Z,7.68
2022-07-30T02:27:32.411Z,7.47
2022-07-30T02:30:04.599Z,7.72
2022-07-30T02:32:39.568Z,7.10
2022-07-30T02:35:14.788Z,7.03
2022-07-30T02:37:44.726Z,7.78
2022-07-30T02:40:18.056Z,4.75
2022-07-30T02:42:51.689Z,3.92
2022-07-30T02:45:25.941Z,5.80
2022-07-30T02:48:00.251Z,4.00
2022-07-30T02:50:30.026Z,3.67
2022-07-30T02:53:01.058Z,4.93
2022-07-30T02:55:35.506Z,4.72
2022-07-30T02:58:08.115Z,5.93
2022-07-30T03:00:38.069Z,5.32
2022-07-30T03:03:08.559Z,5.80
2022-07-30T03:05:41.195Z,5.45
2022-07-30T03:08:13.649Z,6.30
2022-07-30T03:10:50.169Z,6.25
2022-07-30T03:13:21.923Z,4.90
2022-07-30T03:15:53.325Z,5.50
2022-07-30T03:18:23.431Z,6.53
2022-07-30T03:20:56.373Z,4.65
2022-07-30T03:23:26.817Z,4.75
2022-07-30T03:26:01.839Z,3.60
2022-07-30T03:28:34.969Z,3.20
2022-07-30T03:31:04.753Z,3.15
2022-07-30T03:33:38.678Z,3.38
2022-07-30T03:36:09.929Z,3.35
2022-07-30T03:41:09.218Z,3.75
2022-07-30T03:43:40.971Z,3.20
2022-07-30T03:46:12.812Z,3.08
2022-07-30T03:48:45.987Z,4.20
2022-07-30T03:51:14.758Z,4.03
2022-07-30T03:53:44.725Z,3.33
2022-07-30T03:56:31.799Z,3.88
2022-07-30T03:59:09.150Z,3.42
2022-07-30T04:01:41.137Z,4.05
2022-07-30T04:04:17.787Z,3.40
2022-07-30T04:06:46.233Z,3.63
2022-07-30T04:09:16.333Z,3.03
2022-07-30T04:11:45.313Z,3.97
2022-07-30T04:14:19.474Z,3.25
2022-07-30T04:16:58.390Z,4.10
2022-07-30T04:19:33.110Z,4.60
2022-07-30T04:22:03.370Z,4.40
2022-07-30T04:24:33.571Z,4.00
2022-07-30T04:27:03.939Z,3.23
2022-07-30T04:29:34.291Z,4.03
2022-07-30T04:35:02.801Z,3.63
2022-07-30T04:38:04.272Z,5.93
2022-07-30T04:40:33.671Z,3.72
2022-07-30T04:43:02.156Z,3.20
2022-07-30T04:45:32.055Z,3.85
2022-07-30T04:48:02.497Z,3.75
2022-07-30T04:50:37.856Z,4.97
2022-07-30T04:53:10.003Z,4.35
2022-07-30T04:55:46.612Z,3.75
2022-07-30T04:58:16.755Z,4.10
2022-07-30T05:00:47.452Z,5.10
2022-07-30T05:03:19.200Z,4.45
2022-07-30T05:05:57.102Z,4.70
2022-07-30T05:08:28.199Z,6.22
2022-07-30T05:10:58.540Z,6.15
2022-07-30T05:13:34.284Z,5.80
2022-07-30T05:16:08.884Z,7.13
2022-07-30T05:18:37.321Z,5.45
2022-07-30T05:21:06.311Z,5.85
2022-07-30T05:23:42.111Z,6.10
2022-07-30T05:26:51.439Z,5.68
2022-07-30T05:29:22.045Z,5.68
2022-07-30T05:32:05.910Z,6.18
2022-07-30T05:34:37.224Z,6.20
2022-07-30T05:37:06.241Z,6.38
2022-07-30T05:40:02.956Z,6.43
2022-07-30T05:43:02.176Z,6.60
2022-07-30T05:45:31.070Z,7.05
2022-07-30T05:48:00.921Z,7.32
2022-07-30T05:50:29.592Z,7.03
2022-07-30T05:52:58.611Z,6.57
2022-07-30T05:55:55.736Z,7.05
2022-07-30T05:58:42.748Z,7.32
2022-07-30T06:01:17.448Z,7.35
2022-07-30T06:03:47.527Z,6.78
2022-07-30T06:06:34.927Z,7.00
2022-07-30T06:09:03.522Z,7.20
2022-07-30T06:11:35.055Z,5.65
2022-07-30T06:14:05.671Z,5.82
2022-07-30T06:19:03.725Z,4.03
2022-07-30T06:22:01.813Z,3.70
2022-07-30T06:24:33.656Z,3.95
2022-07-30T06:27:10.911Z,3.63
2022-07-30T06:29:40.784Z,3.17
2022-07-30T06:32:10.501Z,3.90
2022-07-30T06:34:40.539Z,3.50
2022-07-30T06:37:09.171Z,3.75
2022-07-30T06:39:56.059Z,3.78
2022-07-30T06:42:48.174Z,3.50
2022-07-30T06:45:42.830Z,3.03
2022-07-30T06:48:34.119Z,3.33
2022-07-30T06:51:07.472Z,3.60
2022-07-30T06:53:42.683Z,3.65
2022-07-30T06:56:14.684Z,3.40
2022-07-30T06:58:49.267Z,3.20
2022-07-30T07:01:36.796Z,3.38
2022-07-30T07:04:06.131Z,3.70
2022-07-30T07:06:37.004Z,3.00
2022-07-30T07:09:06.019Z,3.10
2022-07-30T07:11:42.060Z,3.38
2022-07-30T07:14:13.706Z,3.35
2022-07-30T07:16:42.232Z,3.80
2022-07-30T07:19:59.469Z,3.22
2022-07-30T07:22:23.562Z,3.05
2022-07-30T07:24:51.977Z,3.63
2022-07-30T07:27:23.950Z,3.00
2022-07-30T07:30:05.092Z,3.15
2022-07-30T07:32:36.414Z,3.00
2022-07-30T07:35:06.622Z,3.27
2022-07-30T07:37:38.709Z,3.42
2022-07-30T07:40:10.015Z,3.63
2022-07-30T07:42:42.800Z,3.15
2022-07-30T07:45:12.590Z,3.33
2022-07-30T07:47:52.077Z,3.60
2022-07-30T07:50:45.028Z,3.53
2022-07-30T07:53:22.266Z,3.10
2022-07-30T07:55:50.950Z,3.13
2022-07-30T07:58:25.391Z,3.30
2022-07-30T08:00:56.064Z,4.32
2022-07-30T08:03:34.124Z,3.13
2022-07-30T08:06:14.680Z,2.95
2022-07-30T08:09:10.884Z,2.97
2022-07-30T08:12:02.629Z,2.75
2022-07-30T08:14:56.120Z,3.38
2022-07-30T08:17:44.890Z,3.15
2022-07-30T08:20:33.745Z,2.65
2022-07-30T08:23:02.715Z,2.70
2022-07-30T08:25:32.513Z,3.17
2022-07-30T08:28:03.197Z,3.30
2022-07-30T08:30:32.189Z,2.50
2022-07-30T08:33:00.764Z,2.60
2022-07-30T08:35:29.298Z,2.92
2022-07-30T08:37:57.692Z,2.80
2022-07-30T08:40:28.552Z,3.10
2022-07-30T08:43:08.796Z,3.45
2022-07-30T08:45:39.144Z,2.72
2022-07-30T08:48:23.444Z,3.17
2022-07-30T08:50:52.468Z,3.13
2022-07-30T08:53:36.529Z,3.15
2022-07-30T08:56:07.864Z,3.05
2022-07-30T08:58:39.198Z,3.20
2022-07-30T09:01:08.289Z,3.25
2022-07-30T09:03:44.146Z,2.78
2022-07-30T09:06:13.506Z,2.80
2022-07-30T09:08:43.431Z,3.17
2022-07-30T09:11:14.525Z,2.95
2022-07-30T09:13:45.557Z,3.25
2022-07-30T09:16:23.469Z,2.88
2022-07-30T09:18:53.983Z,3.05
2022-07-30T09:21:25.274Z,3.20
2022-07-30T09:27:00.325Z,2.75
2022-07-30T09:29:58.689Z,2.90
2022-07-30T09:32:50.563Z,2.80
2022-07-30T09:35:45.764Z,2.85
2022-07-30T09:38:46.218Z,2.60
2022-07-30T09:41:39.531Z,3.05
2022-07-30T09:44:24.572Z,3.15
2022-07-30T09:46:59.687Z,2.95
2022-07-30T09:49:34.471Z,2.70
2022-07-30T09:52:03.131Z,2.58
2022-07-30T09:54:51.081Z,3.00
2022-07-30T09:57:27.641Z,2.92
2022-07-30T10:00:19.769Z,2.60
2022-07-30T10:03:21.536Z,2.88
2022-07-30T10:06:20.575Z,2.85
2022-07-30T10:08:52.117Z,2.47
2022-07-30T10:11:24.489Z,2.47
2022-07-30T10:14:00.299Z,2.63
2022-07-30T10:16:30.794Z,2.55
2022-07-30T10:19:02.007Z,2.75
2022-07-30T10:21:51.229Z,2.53
2022-07-30T10:24:39.167Z,3.17
2022-07-30T10:27:26.601Z,2.85
2022-07-30T10:30:21.746Z,3.10
2022-07-30T10:33:00.095Z,2.58
2022-07-30T10:35:38.040Z,2.42
2022-07-30T10:38:13.778Z,2.60
2022-07-30T10:40:49.941Z,3.00
2022-07-30T10:43:56.255Z,3.17
2022-07-30T10:46:42.347Z,3.35
2022-07-30T10:49:19.052Z,3.33
2022-07-30T10:51:51.638Z,3.45
2022-07-30T10:54:41.637Z,3.47
2022-07-30T10:57:14.743Z,3.30
2022-07-30T11:00:15.426Z,3.22
2022-07-30T11:03:18.675Z,3.22
2022-07-30T11:05:50.643Z,3.20
2022-07-30T11:08:42.627Z,2.90
2022-07-30T11:12:01.334Z,3.05
2022-07-30T11:15:06.583Z,3.50
2022-07-30T11:18:12.945Z,3.10
2022-07-30T11:20:48.610Z,3.20
2022-07-30T11:23:45.840Z,3.30
2022-07-30T11:26:56.618Z,3.53
2022-07-30T11:32:33.218Z,3.35
2022-07-30T11:35:22.899Z,3.22
2022-07-30T11:38:02.267Z,3.17
2022-07-30T11:40:34.715Z,3.00
2022-07-30T11:43:25.626Z,2.92
2022-07-30T11:48:41.905Z,2.80
2022-07-30T11:51:11.214Z,3.10
2022-07-30T11:53:39.707Z,2.90
2022-07-30T11:56:10.441Z,3.10
2022-07-30T11:58:44.774Z,3.08
2022-07-30T12:01:16.453Z,2.63
2022-07-30T12:03:47.597Z,2.80
2022-07-30T12:06:19.719Z,2.42
2022-07-30T12:08:52.851Z,2.97
2022-07-30T12:11:24.949Z,3.55
2022-07-30T12:13:59.740Z,2.92
2022-07-30T12:16:29.193Z,2.90
2022-07-30T12:19:02.850Z,3.45
2022-07-30T12:21:31.559Z,3.00
2022-07-30T12:24:02.934Z,2.90
2022-07-30T12:26:35.134Z,2.75
2022-07-30T12:29:10.052Z,2.90
2022-07-30T12:31:40.215Z,2.78
2022-07-30T12:34:21.926Z,2.88
2022-07-30T12:36:50.626Z,3.17
2022-07-30T12:39:23.933Z,3.10
2022-07-30T12:41:56.537Z,2.92
2022-07-30T12:44:44.710Z,3.25
2022-07-30T12:47:24.926Z,2.85
2022-07-30T12:49:54.351Z,3.20
2022-07-30T12:52:29.360Z,3.00
2022-07-30T12:55:06.412Z,3.10
2022-07-30T12:57:57.460Z,3.13
2022-07-30T13:00:28.266Z,3.20
2022-07-30T13:02:57.655Z,2.67
2022-07-30T13:05:49.743Z,3.03
2022-07-30T13:08:19.069Z,3.25
2022-07-30T13:10:59.668Z,3.08
2022-07-30T13:13:31.022Z,3.13
2022-07-30T13:16:01.717Z,3.20
2022-07-30T13:18:31.576Z,3.20
2022-07-30T13:21:00.653Z,3.45
2022-07-30T13:23:30.002Z,2.90
2022-07-30T13:25:58.963Z,2.95
2022-07-30T13:28:29.151Z,3.15
2022-07-30T13:30:58.780Z,3.40
2022-07-30T13:33:27.656Z,2.83
2022-07-30T13:35:56.145Z,3.15
2022-07-30T13:38:24.609Z,3.22
2022-07-30T13:40:56.934Z,2.92
2022-07-30T13:43:29.030Z,3.10
2022-07-30T13:46:00.425Z,2.88
2022-07-30T13:48:28.770Z,3.13
2022-07-30T13:50:57.388Z,2.90
2022-07-30T13:53:25.780Z,2.85
2022-07-30T13:55:54.342Z,3.50
2022-07-30T13:58:22.654Z,3.03
2022-07-30T14:00:52.739Z,3.10
2022-07-30T14:03:21.283Z,3.35
2022-07-30T14:05:49.750Z,2.75
2022-07-30T14:08:18.160Z,2.85
2022-07-30T14:10:46.520Z,3.13
2022-07-30T14:13:20.982Z,2.90
2022-07-30T14:15:52.761Z,3.05
2022-07-30T14:18:21.386Z,3.17
2022-07-30T14:20:52.650Z,2.70
2022-07-30T14:23:21.626Z,3.00
2022-07-30T14:25:50.166Z,3.13
2022-07-30T14:28:18.734Z,3.30
2022-07-30T14:30:47.135Z,3.30
2022-07-30T14:33:18.366Z,3.00
2022-07-30T14:35:46.721Z,3.53
2022-07-30T14:38:18.703Z,3.13
2022-07-30T14:40:47.020Z,3.70
2022-07-30T14:43:17.060Z,3.47
2022-07-30T14:45:45.685Z,3.58
2022-07-30T14:48:14.070Z,3.47
2022-07-30T14:51:03.689Z,3.58
2022-07-30T14:53:32.508Z,3.22
2022-07-30T14:56:01.355Z,3.67
2022-07-30T14:58:30.041Z,3.50
2022-07-30T15:01:01.148Z,3.35
2022-07-30T15:03:44.668Z,3.72
2022-07-30T15:06:15.380Z,3.58
2022-07-30T15:08:46.018Z,3.40
2022-07-30T15:11:14.573Z,3.35
2022-07-30T15:13:49.937Z,3.88
2022-07-30T15:16:19.807Z,4.18
2022-07-30T15:18:48.346Z,3.60
2022-07-30T15:21:18.338Z,3.45
2022-07-30T15:23:46.794Z,3.63
2022-07-30T15:26:15.251Z,3.75
2022-07-30T15:28:43.629Z,4.30
2022-07-30T15:31:12.020Z,3.30
2022-07-30T15:33:43.052Z,3.67
2022-07-30T15:36:11.884Z,3.40
2022-07-30T15:38:41.938Z,3.30
2022-07-30T15:41:14.077Z,3.22
2022-07-30T15:43:42.997Z,3.60
2022-07-30T15:46:11.378Z,3.88
2022-07-30T15:48:39.769Z,4.20
2022-07-30T15:51:08.424Z,3.25
2022-07-30T15:53:37.166Z,3.40
2022-07-30T15:56:07.290Z,3.30
2022-07-30T15:58:43.256Z,3.95
2022-07-30T16:01:12.816Z,3.58
2022-07-30T16:03:41.278Z,3.38
2022-07-30T16:06:09.701Z,3.53
2022-07-30T16:08:38.089Z,3.63
2022-07-30T16:11:07.817Z,3.75
2022-07-30T16:13:39.605Z,4.15
2022-07-30T16:16:07.938Z,4.05
2022-07-30T16:18:36.315Z,3.92
2022-07-30T16:21:04.874Z,3.53
2022-07-30T16:23:36.389Z,3.70
2022-07-30T16:26:07.100Z,3.50
2022-07-30T16:28:35.684Z,3.45
2022-07-30T16:31:04.077Z,3.55
2022-07-30T16:33:32.527Z,4.13
2022-07-30T16:36:00.884Z,4.03
2022-07-30T16:38:29.334Z,4.30
2022-07-30T16:40:57.750Z,3.58
2022-07-30T16:43:27.456Z,3.75
2022-07-30T16:45:55.770Z,4.22
2022-07-30T16:48:24.122Z,4.35
2022-07-30T16:50:52.441Z,4.30
2022-07-30T16:53:20.870Z,4.15
2022-07-30T16:55:49.669Z,4.50
2022-07-30T16:58:18.115Z,4.53
2022-07-30T17:00:51.264Z,4.32
2022-07-30T17:03:20.061Z,4.47
2022-07-30T17:05:49.569Z,4.60
2022-07-30T17:08:18.155Z,4.05
2022-07-30T17:10:47.827Z,4.30
2022-07-30T17:13:16.681Z,4.82
2022-07-30T17:15:46.703Z,4.05
2022-07-30T17:18:16.997Z,4.50
2022-07-30T17:20:45.820Z,4.40
2022-07-30T17:23:14.219Z,4.10
2022-07-30T17:25:42.641Z,4.38
2022-07-30T17:28:11.026Z,4.13
2022-07-30T17:30:39.502Z,3.70
2022-07-30T17:33:08.559Z,4.13
2022-07-30T17:35:38.791Z,4.43
2022-07-30T17:38:07.436Z,4.35
2022-07-30T17:40:35.934Z,3.83
2022-07-30T17:43:05.566Z,4.25
2022-07-30T17:45:36.823Z,4.60
2022-07-30T17:48:06.877Z,3.97
2022-07-30T17:50:37.139Z,4.07
2022-07-30T17:53:06.801Z,4.53
2022-07-30T17:55:35.554Z,4.35
2022-07-30T17:58:04.588Z,4.40
2022-07-30T18:00:34.906Z,4.22
2022-07-30T18:03:06.351Z,4.93
2022-07-30T18:05:37.365Z,4.18
2022-07-30T18:08:06.203Z,4.82
2022-07-30T18:10:34.577Z,4.22
2022-07-30T18:13:26.012Z,4.13
2022-07-30T18:15:52.679Z,4.65
2022-07-30T18:18:22.546Z,4.67
2022-07-30T18:20:52.475Z,4.40
2022-07-30T18:23:20.996Z,5.00
2022-07-30T18:25:54.653Z,4.32
2022-07-30T18:28:23.503Z,4.55
2022-07-30T18:30:52.248Z,5.00
2022-07-30T18:33:21.256Z,4.93
2022-07-30T18:35:51.850Z,4.72
2022-07-30T18:38:20.685Z,4.82
2022-07-30T18:40:58.465Z,4.35
2022-07-30T18:43:27.887Z,5.43
2022-07-30T18:45:57.472Z,5.00
2022-07-30T18:48:26.665Z,4.83
2022-07-30T18:50:56.341Z,4.70
2022-07-30T18:53:24.829Z,4.70
2022-07-30T18:55:53.346Z,4.10
2022-07-30T18:58:21.805Z,4.57
2022-07-30T19:00:50.749Z,4.63
2022-07-30T19:03:23.063Z,4.05
2022-07-30T19:05:51.718Z,3.90
2022-07-30T19:08:21.572Z,4.15
2022-07-30T19:10:50.222Z,4.18
2022-07-30T19:13:18.601Z,4.32
2022-07-30T19:15:47.065Z,5.13
2022-07-30T19:18:15.478Z,5.38
2022-07-30T19:20:45.336Z,6.15
2022-07-30T19:23:15.187Z,5.40
2022-07-30T19:25:45.177Z,4.88
2022-07-30T19:28:15.477Z,5.15
2022-07-30T19:30:44.030Z,4.50
2022-07-30T19:33:15.566Z,5.85
2022-07-30T19:35:44.840Z,5.68
2022-07-30T19:38:21.639Z,4.75
2022-07-30T19:40:52.918Z,5.00
2022-07-30T19:43:23.166Z,4.55
2022-07-30T19:45:52.756Z,4.95
2022-07-30T19:48:29.193Z,5.05
2022-07-30T19:51:01.647Z,4.75
2022-07-30T19:53:34.326Z,5.10
2022-07-30T19:56:08.351Z,4.68
2022-07-30T20:01:40.265Z,6.78
2022-07-30T20:04:11.105Z,5.95
2022-07-30T20:09:17.583Z,6.45
2022-07-30T20:11:47.526Z,6.28
2022-07-30T20:14:17.998Z,5.82
2022-07-30T20:16:47.553Z,6.10
2022-07-30T20:19:16.644Z,5.68
2022-07-30T20:21:56.047Z,5.45
2022-07-30T20:24:26.488Z,5.50
2022-07-30T20:26:56.374Z,5.80
2022-07-30T20:29:25.010Z,5.68
2022-07-30T20:31:53.537Z,6.00
2022-07-30T20:34:25.727Z,5.60
2022-07-30T20:36:57.455Z,5.90
2022-07-30T20:39:26.362Z,6.07
2022-07-30T20:42:08.512Z,6.00
2022-07-30T20:44:38.127Z,5.13
2022-07-30T20:47:08.032Z,4.87
2022-07-30T20:49:37.062Z,5.60
2022-07-30T20:52:06.664Z,5.10
2022-07-30T20:54:35.292Z,4.50
2022-07-30T20:57:08.819Z,4.72
2022-07-30T21:05:01.199Z,4.40
2022-07-30T21:07:36.523Z,4.15
2022-07-30T21:10:08.391Z,3.95
2022-07-30T21:12:44.753Z,3.42
2022-07-30T21:15:23.394Z,3.63
2022-07-30T21:17:52.938Z,3.40
2022-07-30T21:20:27.766Z,3.75
2022-07-30T21:22:57.154Z,3.45
2022-07-30T21:25:32.567Z,3.92
2022-07-30T21:28:03.622Z,4.20
2022-07-30T21:30:33.630Z,3.75
2022-07-30T21:33:01.953Z,3.95
2022-07-30T21:35:32.054Z,3.63
2022-07-30T21:38:01.097Z,4.40
2022-07-30T21:40:29.552Z,4.13
2022-07-30T21:42:57.983Z,4.57
2022-07-30T21:45:38.038Z,4.00
2022-07-30T21:48:11.412Z,4.60
2022-07-30T21:50:40.764Z,5.05
2022-07-30T21:53:11.598Z,5.20
2022-07-30T21:58:25.867Z,6.50
2022-07-30T22:01:18.026Z,5.72
2022-07-30T22:04:02.719Z,5.57
2022-07-30T22:06:33.706Z,5.45
2022-07-30T22:09:02.707Z,4.95
2022-07-30T22:11:42.482Z,4.90
2022-07-30T22:14:11.574Z,4.78
2022-07-30T22:16:45.963Z,5.47
2022-07-30T22:19:15.325Z,5.18
2022-07-30T22:21:46.504Z,5.60
2022-07-30T22:24:26.296Z,5.95
2022-07-30T22:27:00.075Z,6.45
2022-07-30T22:29:33.731Z,5.75
2022-07-30T22:32:06.412Z,6.85
2022-07-30T22:34:36.470Z,6.97
2022-07-30T22:37:09.279Z,10.90
2022-07-30T22:39:51.726Z,7.63
2022-07-30T22:42:24.007Z,6.50
2022-07-30T22:44:54.687Z,6.28
2022-07-30T22:47:54.172Z,6.68
2022-07-30T22:50:15.032Z,29.05
2022-07-30T22:52:56.028Z,11.60
2022-07-30T22:55:31.354Z,8.48
2022-07-30T22:58:00.018Z,10.20
2022-07-30T23:00:28.732Z,9.38
2022-07-30T23:02:59.381Z,9.57
2022-07-30T23:08:04.020Z,6.80
2022-07-30T23:10:32.666Z,10.82
2022-07-30T23:12:16.509Z,4.47
2022-07-30T23:12:26.729Z,4.53
2022-07-30T23:13:01.493Z,6.68
2022-07-30T23:15:29.973Z,22.13
2022-07-30T23:17:59.696Z,7.00
2022-07-30T23:20:28.777Z,8.07
2022-07-30T23:22:57.402Z,9.93
2022-07-30T23:25:38.479Z,7.40
2022-07-30T23:28:07.378Z,7.53
2022-07-30T23:30:35.864Z,7.18
2022-07-30T23:33:05.890Z,7.10
2022-07-30T23:35:35.082Z,7.68
2022-07-30T23:38:03.461Z,7.38
2022-07-30T23:40:31.989Z,6.63
2022-07-30T23:43:00.323Z,6.38
2022-07-30T23:45:28.676Z,6.03
2022-07-30T23:48:02.719Z,6.90
2022-07-30T23:50:35.649Z,6.97
2022-07-30T23:53:05.593Z,6.80
2022-07-30T23:55:33.984Z,7.28
2022-07-30T23:58:02.347Z,7.15
